Time;durP1;ratioP1;P1;durP2;ratioP2;P2;SDS_P1;SDS_P2;PMS_P1;PMS_P2;Temp;Humidity;BMP_temperature;BMP_pressure;BME280_temperature;BME280_humidity;BME280_pressure;Samples;Min_cycle;Max_cycle;Signal;HPM_P1;HPM_P2
2022/07/22 00:00:16;;;;;;;10.32;9.25;;;;;;;26.52;49.02;99318.34;5149494;27;20062;-69
2022/07/22 00:02:44;;;;;;;12.52;11.20;;;;;;;26.42;49.09;99314.22;5149333;27;20104;-69
2022/07/22 00:05:13;;;;;;;16.10;13.88;;;;;;;26.43;48.77;99324.06;5149364;27;20107;-69
2022/07/22 00:07:40;;;;;;;14.07;12.63;;;;;;;26.38;48.97;99327.34;5149390;27;20088;-69
2022/07/22 00:10:10;;;;;;;15.15;12.30;;;;;;;26.46;48.89;99337.28;5149139;27;20051;-69
2022/07/22 00:12:38;;;;;;;13.20;11.52;;;;;;;26.48;48.51;99337.94;5148815;27;20055;-69
2022/07/22 00:15:08;;;;;;;9.63;8.60;;;;;;;26.36;49.27;99344.88;5149151;27;20200;-69
2022/07/22 00:17:36;;;;;;;11.32;7.55;;;;;;;26.28;48.88;99348.50;5149319;27;20051;-69
2022/07/22 00:20:04;;;;;;;22.55;17.88;;;;;;;26.30;48.33;99340.16;5148900;27;20100;-69
2022/07/22 00:22:33;;;;;;;16.05;13.40;;;;;;;26.28;48.71;99340.34;5148824;27;20055;-69
2022/07/22 00:25:00;;;;;;;12.60;9.98;;;;;;;26.30;48.65;99340.16;5148718;27;20058;-69
2022/07/22 00:27:28;;;;;;;9.80;7.30;;;;;;;26.33;48.68;99351.50;5149113;27;20039;-69
2022/07/22 00:29:55;;;;;;;11.10;8.85;;;;;;;26.07;48.88;99324.78;5148723;27;20077;-68
2022/07/22 00:32:22;;;;;;;9.93;8.43;;;;;;;26.26;48.58;99342.41;5148741;27;20059;-68
2022/07/22 00:34:49;;;;;;;11.50;10.30;;;;;;;26.23;49.20;99342.78;5148567;27;20096;-69
2022/07/22 00:37:17;;;;;;;13.98;11.05;;;;;;;26.19;48.89;99341.47;5148824;27;20057;-68
2022/07/22 00:39:47;;;;;;;11.90;10.68;;;;;;;26.10;49.53;99339.88;5148929;27;20120;-69
2022/07/22 00:42:15;;;;;;;12.02;10.77;;;;;;;26.21;49.12;99351.13;5148835;27;20055;-69
2022/07/22 00:44:43;;;;;;;10.30;9.20;;;;;;;26.17;49.33;99349.81;5148194;27;20099;-69
2022/07/22 00:47:10;;;;;;;8.70;7.80;;;;;;;26.23;48.70;99359.94;5148425;27;20115;-69
2022/07/22 00:49:38;;;;;;;8.55;7.65;;;;;;;26.13;49.06;99345.78;5148196;27;20121;-69
2022/07/22 00:52:06;;;;;;;7.93;7.13;;;;;;;26.03;49.04;99344.34;5148611;27;20261;-69
2022/07/22 00:54:33;;;;;;;7.65;6.95;;;;;;;25.98;49.21;99349.47;5148202;27;20372;-69
2022/07/22 00:57:02;;;;;;;9.73;8.25;;;;;;;25.54;49.63;99295.88;5147967;27;20097;-71
2022/07/22 00:59:29;;;;;;;10.07;9.07;;;;;;;25.68;50.12;99329.50;5148129;27;20059;-70
2022/07/22 01:01:57;;;;;;;9.20;8.18;;;;;;;25.89;49.50;99338.66;5148343;27;20055;-71
2022/07/22 01:04:24;;;;;;;9.57;8.57;;;;;;;25.79;50.04;99329.94;5147776;27;20111;-71
2022/07/22 01:06:51;;;;;;;9.05;8.25;;;;;;;25.73;50.33;99346.09;5147961;27;20055;-70
2022/07/22 01:09:19;;;;;;;11.68;10.48;;;;;;;25.71;50.39;99346.28;5148351;27;20043;-71
2022/07/22 01:11:46;;;;;;;9.52;7.95;;;;;;;25.75;50.19;99344.88;5147943;27;20058;-70
2022/07/22 01:14:15;;;;;;;9.48;7.55;;;;;;;25.55;50.91;99321.97;5148097;27;20234;-70
2022/07/22 01:16:42;;;;;;;7.93;6.25;;;;;;;25.64;50.16;99337.19;5148411;27;20051;-70
2022/07/22 01:19:09;;;;;;;7.63;6.90;;;;;;;25.68;50.28;99338.50;5147857;27;20058;-71
2022/07/22 01:21:38;;;;;;;8.07;7.32;;;;;;;25.78;49.95;99340.97;5148129;27;20245;-70
2022/07/22 01:24:07;;;;;;;10.38;9.38;;;;;;;25.79;49.72;99340.78;5148305;27;20058;-70
2022/07/22 01:26:34;;;;;;;8.98;7.65;;;;;;;25.60;50.39;99349.41;5147469;27;20051;-70
2022/07/22 01:29:01;;;;;;;7.35;6.65;;;;;;;25.68;50.18;99356.66;5147703;27;20055;-70
2022/07/22 01:31:29;;;;;;;8.07;7.18;;;;;;;25.56;50.70;99331.81;5147316;27;20103;-71
2022/07/22 01:33:56;;;;;;;8.05;6.57;;;;;;;25.68;50.52;99352.06;5147674;27;20099;-70
2022/07/22 01:36:24;;;;;;;7.85;6.65;;;;;;;25.30;50.54;99288.72;5147239;27;20104;-70
2022/07/22 01:38:52;;;;;;;8.38;6.43;;;;;;;25.63;50.88;99351.78;5147400;27;20095;-71
2022/07/22 01:41:20;;;;;;;7.55;6.75;;;;;;;25.62;50.66;99352.78;5147089;27;20055;-70
2022/07/22 01:43:47;;;;;;;7.38;6.55;;;;;;;25.63;50.73;99356.34;5147319;27;20081;-70
2022/07/22 01:46:14;;;;;;;8.07;6.47;;;;;;;25.69;50.41;99352.91;5147256;27;20213;-70
2022/07/22 01:48:42;;;;;;;9.65;6.18;;;;;;;25.66;50.34;99337.84;5146930;27;20055;-70
2022/07/22 01:51:09;;;;;;;8.05;7.25;;;;;;;25.69;50.24;99342.91;5146857;27;20055;-70
2022/07/22 01:53:36;;;;;;;10.57;9.27;;;;;;;25.58;50.26;99317.03;5147020;27;20192;-70
2022/07/22 01:56:05;;;;;;;9.82;8.93;;;;;;;25.70;50.35;99339.16;5147124;27;20111;-70
2022/07/22 01:58:33;;;;;;;9.65;8.38;;;;;;;25.68;50.30;99348.50;5147256;27;20080;-70
2022/07/22 02:01:00;;;;;;;10.40;9.30;;;;;;;25.67;50.15;99334.09;5147268;27;20055;-70
2022/07/22 02:03:28;;;;;;;20.33;16.83;;;;;;;25.74;50.15;99342.34;5147044;27;20108;-70
2022/07/22 02:05:56;;;;;;;12.52;10.65;;;;;;;25.26;50.27;99269.25;5146718;27;20264;-70
2022/07/22 02:08:23;;;;;;;9.98;8.40;;;;;;;25.67;50.19;99334.09;5146914;27;20058;-71
2022/07/22 02:10:50;;;;;;;10.13;7.47;;;;;;;25.28;50.55;99278.06;5146264;27;20116;-70
2022/07/22 02:13:19;;;;;;;16.27;14.35;;;;;;;25.73;50.03;99321.66;5146373;27;20100;-70
2022/07/22 02:15:46;;;;;;;11.20;10.02;;;;;;;25.72;49.90;99319.97;5146623;27;20248;-70
2022/07/22 02:18:16;;;;;;;9.25;8.20;;;;;;;25.56;50.45;99331.81;5146691;27;20063;-70
2022/07/22 02:20:44;;;;;;;7.82;5.95;;;;;;;25.50;50.08;99305.41;5145846;27;20100;-70
2022/07/22 02:23:12;;;;;;;7.70;6.90;;;;;;;25.53;50.34;99318.59;5146794;27;20318;-71
2022/07/22 02:25:39;;;;;;;8.35;6.90;;;;;;;25.41;50.34;99326.31;5146458;27;20047;-71
2022/07/22 02:28:07;;;;;;;8.90;7.57;;;;;;;25.36;50.41;99309.75;5146596;27;20099;-70
2022/07/22 02:30:35;;;;;;;9.73;8.60;;;;;;;25.54;50.27;99331.16;5145701;27;20063;-70
2022/07/22 02:33:03;;;;;;;9.52;8.63;;;;;;;25.34;50.04;99298.22;5146111;27;20063;-70
2022/07/22 02:35:30;;;;;;;11.38;9.10;;;;;;;25.52;50.04;99334.03;5146447;27;20096;-70
2022/07/22 02:37:57;;;;;;;10.05;8.23;;;;;;;25.48;50.11;99332.72;5146173;27;20054;-70
2022/07/22 02:40:25;;;;;;;8.90;8.10;;;;;;;25.49;50.03;99333.56;5146542;27;20051;-70
2022/07/22 02:42:52;;;;;;;8.30;7.45;;;;;;;25.50;49.83;99332.53;5146247;27;20203;-70
2022/07/22 14:19:27;;;;;;;7.57;6.75;;;;;;;28.66;50.44;99033.00;5144378;27;20123;-68
2022/07/22 14:21:55;;;;;;;8.18;7.47;;;;;;;28.69;48.87;99037.22;5122758;28;20055;-69
2022/07/22 14:24:24;;;;;;;9.27;8.25;;;;;;;28.24;50.33;99006.94;5123018;28;20056;-69
2022/07/22 14:26:51;;;;;;;9.35;8.45;;;;;;;28.21;51.43;99025.56;5122372;28;20055;-68
2022/07/22 14:29:21;;;;;;;15.45;9.23;;;;;;;28.13;50.55;99008.38;5122479;28;20093;-69
2022/07/22 14:31:48;;;;;;;8.90;8.07;;;;;;;28.38;47.20;99005.91;5122343;28;20058;-69
2022/07/22 14:34:16;;;;;;;9.52;7.10;;;;;;;28.19;51.05;99022.22;5104655;28;20055;-69
2022/07/22 14:36:45;;;;;;;10.48;7.95;;;;;;;28.11;52.29;99023.25;5122713;28;20300;-69
2022/07/22 14:39:13;;;;;;;10.25;9.23;;;;;;;28.09;52.20;99017.16;5122526;28;20063;-69
2022/07/22 14:41:40;;;;;;;10.35;8.95;;;;;;;28.03;50.62;99015.25;5122740;28;20070;-69
2022/07/22 14:44:07;;;;;;;10.60;9.18;;;;;;;28.06;50.45;99007.50;5122282;28;20059;-69
2022/07/22 14:46:35;;;;;;;8.05;7.25;;;;;;;28.03;51.07;98980.69;5122601;28;20063;-69
2022/07/22 14:49:02;;;;;;;9.13;8.30;;;;;;;28.00;50.24;98985.69;5122358;28;20047;-69
2022/07/22 14:51:30;;;;;;;9.85;8.85;;;;;;;28.23;50.58;99002.53;5121999;28;20063;-70
2022/07/22 14:53:58;;;;;;;10.30;8.77;;;;;;;28.21;49.58;99003.78;5122446;28;20059;-69
2022/07/22 14:56:26;;;;;;;11.45;8.50;;;;;;;28.16;50.47;98998.09;5122136;28;20062;-70
2022/07/22 14:58:53;;;;;;;8.73;7.97;;;;;;;28.18;50.62;98994.13;5122123;28;20054;-69
2022/07/22 15:01:21;;;;;;;8.77;8.00;;;;;;;28.19;50.33;98994.97;5122170;28;20060;-69
2022/07/22 15:03:48;;;;;;;8.85;8.05;;;;;;;28.43;48.86;98991.69;5122090;28;20039;-69
2022/07/22 15:06:15;;;;;;;8.82;8.02;;;;;;;28.48;48.00;98989.16;5122058;28;20060;-68
2022/07/22 15:08:43;;;;;;;8.73;7.93;;;;;;;28.35;51.32;98991.84;5121940;28;20122;-70
2022/07/22 15:11:12;;;;;;;9.00;8.07;;;;;;;28.48;48.24;98991.06;5121548;28;20062;-69
2022/07/22 15:13:39;;;;;;;8.60;7.70;;;;;;;28.31;50.37;98957.88;5122106;28;20055;-69
2022/07/22 15:16:07;;;;;;;8.55;7.70;;;;;;;28.29;51.19;98982.63;5121700;28;20062;-70
2022/07/22 15:18:34;;;;;;;9.00;8.10;;;;;;;28.46;47.54;98961.28;5121501;28;20201;-69
2022/07/22 15:21:02;;;;;;;9.70;8.82;;;;;;;28.63;48.41;98973.44;5086757;28;20051;-69
2022/07/22 15:23:30;;;;;;;10.43;8.65;;;;;;;28.54;49.29;98971.16;5121358;28;20105;-69
2022/07/22 15:25:58;;;;;;;9.13;8.27;;;;;;;28.39;48.63;98976.75;5121396;28;20055;-69
2022/07/22 15:28:28;;;;;;;12.32;11.05;;;;;;;28.42;47.08;98962.72;5121273;28;20051;-68
2022/07/22 15:30:56;;;;;;;12.75;11.55;;;;;;;28.34;49.01;98952.03;5107020;28;20077;-69
2022/07/22 15:33:23;;;;;;;11.70;9.90;;;;;;;28.73;46.05;98968.41;5107788;28;20098;-69
2022/07/22 15:35:51;;;;;;;10.05;9.05;;;;;;;28.94;45.54;98963.78;5107673;28;20192;-70
2022/07/22 15:38:18;;;;;;;8.52;7.82;;;;;;;28.82;45.29;98944.50;5107590;28;20403;-69
2022/07/22 15:40:45;;;;;;;9.13;8.25;;;;;;;28.96;45.68;98959.78;5107479;28;20056;-69
2022/07/22 15:43:12;;;;;;;9.88;8.88;;;;;;;29.08;45.27;98954.56;5107616;28;20101;-69
2022/07/22 15:45:41;;;;;;;11.65;8.93;;;;;;;29.42;43.33;98947.94;5107289;28;20304;-70
2022/07/22 15:48:08;;;;;;;9.80;8.80;;;;;;;29.09;44.76;98928.94;5107775;28;20052;-70
2022/07/22 15:50:36;;;;;;;9.73;8.73;;;;;;;29.19;44.77;98942.13;5107555;28;20068;-69
2022/07/22 15:53:03;;;;;;;8.68;7.78;;;;;;;29.37;43.76;98943.13;5107178;28;20181;-69
2022/07/22 15:55:30;;;;;;;8.77;7.60;;;;;;;29.36;44.52;98946.06;5107076;28;20113;-70
2022/07/22 16:00:46;;;;;;;10.38;8.23;;;;;;;29.12;42.34;98908.59;5107597;28;20086;-70
2022/07/22 16:03:13;;;;;;;10.00;9.00;;;;;;;29.48;43.42;98938.88;5107102;28;20052;-70
2022/07/22 16:05:41;;;;;;;8.55;7.65;;;;;;;29.38;44.12;98938.50;5106975;28;20051;-69
2022/07/22 16:08:08;;;;;;;9.57;8.48;;;;;;;29.29;44.95;98929.72;5106890;28;20166;-69
2022/07/22 16:10:35;;;;;;;9.25;8.35;;;;;;;29.27;45.00;98928.25;5107141;28;20055;-69
2022/07/22 16:13:02;;;;;;;10.48;8.95;;;;;;;29.38;44.45;98941.25;5107219;28;20055;-69
2022/07/22 16:15:30;;;;;;;8.70;7.80;;;;;;;29.44;44.92;98924.00;5107005;28;20365;-70
2022/07/22 16:17:58;;;;;;;8.52;7.63;;;;;;;29.44;44.10;98931.34;5106436;28;20320;-69
2022/07/22 16:20:26;;;;;;;9.43;8.52;;;;;;;29.47;44.52;98920.00;5107211;28;20060;-70
2022/07/22 16:22:53;;;;;;;9.75;8.75;;;;;;;29.47;44.41;98920.00;5106967;28;20323;-69
2022/07/22 16:25:20;;;;;;;10.65;8.07;;;;;;;29.33;44.09;98900.94;5106851;28;20056;-69
2022/07/22 16:27:47;;;;;;;10.80;8.60;;;;;;;29.18;44.86;98872.25;5106673;28;20063;-70
2022/07/22 16:30:15;;;;;;;10.13;8.90;;;;;;;29.61;44.20;98918.91;5106567;28;20056;-70
2022/07/22 16:32:42;;;;;;;10.10;8.45;;;;;;;29.62;39.53;98920.59;5106121;28;20077;-70
2022/07/22 16:35:11;;;;;;;9.68;8.18;;;;;;;29.59;42.97;98921.84;5106071;28;20101;-70
2022/07/22 16:37:38;;;;;;;9.43;8.43;;;;;;;29.64;43.57;98915.75;5106561;28;20056;-68
2022/07/22 16:40:07;;;;;;;12.85;8.32;;;;;;;29.86;41.73;98905.31;5106216;28;20068;-69
2022/07/22 16:42:34;;;;;;;9.38;8.45;;;;;;;29.87;40.36;98915.19;5104921;28;20052;-69
2022/07/22 16:45:01;;;;;;;9.90;8.07;;;;;;;29.70;42.48;98923.06;5106006;28;20376;-69
2022/07/22 16:47:29;;;;;;;8.48;7.68;;;;;;;29.74;41.81;98928.94;5106356;28;20075;-69
2022/07/22 16:49:56;;;;;;;8.43;7.63;;;;;;;29.84;42.49;98921.94;5106081;28;20056;-70
2022/07/22 16:52:25;;;;;;;8.30;7.43;;;;;;;29.66;38.83;98883.59;5106025;28;20109;-70
2022/07/22 16:54:54;;;;;;;7.80;7.10;;;;;;;29.92;41.16;98920.84;5105957;28;20055;-70
2022/07/22 16:57:22;;;;;;;7.90;6.78;;;;;;;29.74;41.37;98909.81;5106010;28;20062;-71
2022/07/22 16:59:49;;;;;;;8.43;7.47;;;;;;;29.61;42.84;98908.81;5106129;28;20064;-70
2022/07/22 17:02:16;;;;;;;8.23;7.43;;;;;;;29.46;41.75;98872.75;5106061;28;20056;-70
2022/07/22 17:04:44;;;;;;;8.52;7.68;;;;;;;29.59;42.95;98893.72;5106049;28;20055;-70
2022/07/22 17:07:11;;;;;;;8.05;7.25;;;;;;;29.62;43.28;98912.41;5105779;28;20319;-70
2022/07/22 17:09:40;;;;;;;8.30;7.43;;;;;;;29.61;42.68;98913.44;5106677;28;20334;-70
2022/07/22 17:12:08;;;;;;;7.63;6.40;;;;;;;29.59;42.22;98907.38;5105926;28;20106;-70
2022/07/22 17:14:35;;;;;;;8.32;6.93;;;;;;;29.61;42.67;98913.44;5105377;28;20113;-70
2022/07/22 17:17:03;;;;;;;8.65;6.68;;;;;;;29.70;42.18;98910.25;5105221;28;20105;-70
2022/07/22 17:19:30;;;;;;;7.30;6.60;;;;;;;29.64;42.72;98905.66;5105461;28;20052;-71
2022/07/22 17:21:58;;;;;;;9.43;8.52;;;;;;;29.68;41.27;98909.63;5105345;28;20066;-70
2022/07/22 17:24:25;;;;;;;9.10;8.23;;;;;;;29.68;41.98;98912.38;5105672;28;20317;-70
2022/07/22 17:26:54;;;;;;;10.45;7.55;;;;;;;29.54;42.53;98891.63;5105283;28;20101;-70
2022/07/22 17:29:21;;;;;;;9.68;7.57;;;;;;;29.61;43.53;98906.09;5105418;28;20156;-71
2022/07/22 17:31:48;;;;;;;9.73;8.13;;;;;;;29.63;42.11;98909.44;5105513;28;20089;-70
2022/07/22 17:34:16;;;;;;;8.15;7.05;;;;;;;29.58;42.58;98913.84;5105093;28;20055;-71
2022/07/22 17:36:43;;;;;;;8.10;7.10;;;;;;;29.54;43.85;98905.25;5105045;28;20312;-71
2022/07/22 17:39:11;;;;;;;8.05;7.25;;;;;;;29.52;43.35;98928.38;5105036;28;20040;-71
2022/07/22 17:41:40;;;;;;;8.15;7.13;;;;;;;29.53;43.26;98913.66;5105339;28;20308;-70
2022/07/22 17:44:11;;;;;;;7.88;7.13;;;;;;;29.56;41.30;98918.69;5104861;28;20065;-70
2022/07/22 17:46:38;;;;;;;8.57;6.70;;;;;;;29.54;40.44;98912.63;5105568;28;20058;-71
2022/07/22 17:49:06;;;;;;;7.68;6.97;;;;;;;29.61;41.71;98917.03;5105191;28;20109;-71
2022/07/22 17:51:33;;;;;;;11.00;7.57;;;;;;;29.57;42.69;98915.75;5104905;28;20110;-70
2022/07/22 17:54:00;;;;;;;6.82;6.22;;;;;;;29.54;42.92;98921.66;5104888;28;20055;-71
2022/07/22 17:56:28;;;;;;;8.38;7.53;;;;;;;29.49;43.50;98907.81;5105265;28;20059;-71
2022/07/22 17:58:55;;;;;;;9.18;7.10;;;;;;;29.48;43.78;98924.41;5104304;28;20109;-71
2022/07/22 18:01:23;;;;;;;7.47;6.78;;;;;;;29.45;42.80;98920.22;5104920;28;20063;-71
2022/07/22 18:03:51;;;;;;;8.13;7.40;;;;;;;29.43;43.52;98913.28;5104650;28;20055;-71
2022/07/22 18:06:18;;;;;;;8.30;7.50;;;;;;;29.41;43.97;98918.97;5104486;28;20258;-71
2022/07/22 18:08:45;;;;;;;8.45;7.65;;;;;;;29.07;43.34;98869.13;5104834;28;20055;-71
2022/07/22 18:11:13;;;;;;;8.68;7.88;;;;;;;29.42;43.09;98911.63;5105011;28;20250;-71
2022/07/22 18:13:40;;;;;;;12.98;8.57;;;;;;;29.42;44.31;98925.25;5105056;28;20056;-71
2022/07/22 18:16:08;;;;;;;7.82;7.03;;;;;;;29.44;43.74;98906.78;5104791;28;20164;-71
2022/07/22 18:18:37;;;;;;;8.55;7.20;;;;;;;29.42;43.09;98904.25;5104826;28;20064;-71
2022/07/22 18:21:04;;;;;;;7.57;6.03;;;;;;;29.35;43.87;98907.03;5104375;28;20052;-71
2022/07/22 18:23:31;;;;;;;9.10;7.93;;;;;;;29.20;43.46;98887.34;5104603;28;20319;-71
2022/07/22 18:25:59;;;;;;;8.52;7.38;;;;;;;29.32;43.95;98909.34;5104785;28;20361;-71
2022/07/22 18:28:26;;;;;;;8.40;7.60;;;;;;;29.31;43.54;98907.66;5105172;28;20040;-71
2022/07/22 18:30:54;;;;;;;9.32;7.82;;;;;;;29.27;42.34;98912.72;5104914;28;20051;-71
2022/07/22 18:33:21;;;;;;;9.30;7.75;;;;;;;29.29;44.31;98909.78;5104252;28;20263;-71
2022/07/22 18:35:50;;;;;;;8.27;7.50;;;;;;;29.28;44.33;98911.66;5104559;28;20166;-71
2022/07/22 18:38:17;;;;;;;9.00;7.47;;;;;;;29.25;43.44;98914.84;5104593;28;20320;-71
2022/07/22 18:40:45;;;;;;;8.25;6.72;;;;;;;29.26;43.86;98911.03;5104484;28;20056;-71
2022/07/22 18:43:13;;;;;;;9.65;8.65;;;;;;;29.25;43.39;98914.84;5104322;28;20059;-71
2022/07/22 18:45:40;;;;;;;8.02;6.72;;;;;;;29.23;43.11;98916.09;5086577;28;20051;-71
2022/07/22 18:48:07;;;;;;;10.07;8.02;;;;;;;29.17;42.94;98911.50;5104415;28;20113;-71
2022/07/22 18:50:36;;;;;;;9.10;7.40;;;;;;;29.11;44.12;98906.91;5104553;28;20082;-71
2022/07/22 18:53:04;;;;;;;9.77;8.35;;;;;;;29.12;44.28;98909.41;5104422;28;20040;-71
2022/07/22 18:55:32;;;;;;;10.90;9.90;;;;;;;29.10;44.16;98911.53;5084004;28;20105;-71
2022/07/22 18:57:59;;;;;;;9.02;8.13;;;;;;;29.00;44.84;98889.28;5084154;28;20127;-71
2022/07/22 19:00:26;;;;;;;10.65;8.27;;;;;;;29.07;44.98;98907.34;5084062;28;20128;-71
2022/07/22 19:02:53;;;;;;;8.52;7.72;;;;;;;29.07;45.05;98914.69;5084086;28;20266;-71
2022/07/22 19:05:20;;;;;;;8.93;8.02;;;;;;;29.05;45.07;98914.06;5086567;28;20052;-71
2022/07/22 19:07:48;;;;;;;8.63;7.65;;;;;;;29.05;44.70;98909.44;5087806;28;20114;-71
2022/07/22 19:10:17;;;;;;;7.80;7.00;;;;;;;29.05;45.19;98919.50;5087534;28;20102;-71
2022/07/22 19:12:44;;;;;;;8.45;7.65;;;;;;;29.01;45.02;98923.72;5088024;28;20056;-71
2022/07/22 19:15:12;;;;;;;8.20;7.40;;;;;;;28.96;45.89;98920.75;5087522;28;20111;-71
2022/07/22 19:17:39;;;;;;;8.82;8.02;;;;;;;28.92;47.13;98930.41;5087364;28;20060;-70
2022/07/22 19:20:08;;;;;;;8.55;7.50;;;;;;;28.89;47.29;98923.50;5087729;28;20053;-70
2022/07/22 19:22:36;;;;;;;7.93;7.15;;;;;;;28.42;47.12;98854.56;5087666;28;20057;-71
2022/07/22 19:25:03;;;;;;;9.07;8.05;;;;;;;28.81;46.75;98925.63;5087746;28;20114;-70
2022/07/22 19:27:33;;;;;;;8.55;7.28;;;;;;;28.80;47.09;98934.84;5087672;28;20064;-70
2022/07/22 19:30:00;;;;;;;8.85;7.97;;;;;;;28.75;48.08;98936.31;5087849;28;20062;-70
2022/07/22 19:32:27;;;;;;;7.80;6.97;;;;;;;28.77;47.04;98936.09;5087705;28;20059;-70
2022/07/22 19:34:54;;;;;;;9.32;8.25;;;;;;;28.74;47.25;98939.25;5087941;28;20182;-70
2022/07/22 19:37:21;;;;;;;9.75;6.95;;;;;;;28.77;46.75;98939.69;5087685;28;20235;-70
2022/07/22 19:39:50;;;;;;;8.85;8.02;;;;;;;28.75;46.37;98935.47;5087591;28;20052;-70
2022/07/22 19:42:17;;;;;;;10.45;8.18;;;;;;;28.73;47.27;98934.84;5087373;28;20157;-70
2022/07/22 19:44:47;;;;;;;9.93;8.02;;;;;;;28.70;47.03;98933.38;5087016;28;20106;-70
2022/07/22 19:47:14;;;;;;;10.02;9.02;;;;;;;28.61;47.51;98921.03;5087421;28;20256;-70
2022/07/22 19:49:41;;;;;;;8.65;7.90;;;;;;;28.60;47.49;98916.63;5086877;28;20052;-70
2022/07/22 19:52:08;;;;;;;9.23;6.95;;;;;;;28.57;48.30;98921.66;5087001;28;20113;-70
2022/07/22 19:54:36;;;;;;;10.35;8.50;;;;;;;28.67;48.46;98946.59;5087262;28;20057;-70
2022/07/22 19:57:03;;;;;;;8.50;7.80;;;;;;;28.64;48.89;98945.13;5087020;28;20064;-70
2022/07/22 19:59:30;;;;;;;9.50;7.95;;;;;;;28.64;47.53;98955.22;5087317;28;20052;-70
2022/07/22 20:01:59;;;;;;;8.82;8.00;;;;;;;28.63;48.08;98948.91;5087225;28;20164;-70
2022/07/22 20:04:26;;;;;;;9.77;8.88;;;;;;;28.61;47.93;98955.63;5086945;28;20110;-70
2022/07/22 20:06:53;;;;;;;9.18;8.27;;;;;;;28.60;47.73;98960.25;5086618;28;20072;-70
2022/07/22 20:09:20;;;;;;;9.65;8.77;;;;;;;28.62;47.76;98957.31;5087106;28;20060;-70
2022/07/22 20:11:47;;;;;;;10.07;9.02;;;;;;;28.30;48.60;98916.19;5086989;28;20049;-70
2022/07/22 20:14:15;;;;;;;9.82;8.27;;;;;;;28.60;47.96;98965.69;5087274;28;20119;-70
2022/07/22 20:16:42;;;;;;;9.93;9.02;;;;;;;28.60;47.07;98967.56;5086573;28;20056;-70
2022/07/22 20:19:11;;;;;;;11.27;10.27;;;;;;;28.24;47.05;98917.00;5086586;28;20060;-70
2022/07/22 20:21:38;;;;;;;12.32;11.13;;;;;;;28.60;48.29;98978.47;5086798;28;20056;-70
2022/07/22 20:24:06;;;;;;;10.65;9.55;;;;;;;28.58;47.43;98981.41;5086230;28;20086;-70
2022/07/22 20:26:33;;;;;;;12.65;9.60;;;;;;;28.23;47.53;98919.94;5086743;28;20067;-70
2022/07/22 20:29:00;;;;;;;10.82;9.82;;;;;;;28.60;46.92;98990.22;5086271;28;20056;-70
2022/07/22 20:31:28;;;;;;;11.68;10.45;;;;;;;28.60;47.64;98982.03;5086471;28;20053;-70
2022/07/22 20:33:55;;;;;;;12.20;11.02;;;;;;;28.51;47.58;98968.84;5086272;28;20060;-69
2022/07/22 20:36:25;;;;;;;11.10;9.95;;;;;;;28.61;47.29;98993.78;5086366;28;20056;-70
2022/07/22 20:38:52;;;;;;;10.57;9.50;;;;;;;28.57;46.06;98989.81;5086245;28;20102;-70
2022/07/22 20:41:21;;;;;;;10.40;9.40;;;;;;;28.47;47.18;98978.47;5086452;28;20098;-70
2022/07/22 20:43:48;;;;;;;10.80;9.57;;;;;;;28.50;48.18;98997.97;5086118;28;20098;-70
2022/07/22 20:46:15;;;;;;;11.73;10.52;;;;;;;28.33;47.52;98985.78;5086110;28;20056;-70
2022/07/22 20:48:42;;;;;;;11.00;9.90;;;;;;;28.44;47.17;98990.63;5086115;28;20041;-71
2022/07/22 20:51:10;;;;;;;9.32;8.43;;;;;;;28.40;46.19;99002.97;5085810;28;20178;-70
2022/07/22 20:53:40;;;;;;;9.23;8.32;;;;;;;28.41;46.32;98996.47;5086998;28;20173;-70
2022/07/22 20:56:08;;;;;;;10.50;8.73;;;;;;;28.37;46.89;98995.22;5069073;28;20106;-70
2022/07/22 20:58:35;;;;;;;8.63;7.78;;;;;;;28.37;47.25;98992.47;5086069;28;20052;-70
2022/07/22 21:01:02;;;;;;;12.02;8.80;;;;;;;28.35;47.39;98995.41;5086108;28;20162;-70
2022/07/22 21:03:29;;;;;;;14.93;9.27;;;;;;;28.34;47.27;98995.63;5085473;28;20060;-70
2022/07/22 21:05:57;;;;;;;10.57;9.20;;;;;;;28.35;47.25;98991.84;5068386;28;20090;-70
2022/07/22 21:08:24;;;;;;;10.15;9.10;;;;;;;28.34;48.57;98991.00;5085523;28;20288;-70
2022/07/22 21:10:53;;;;;;;10.73;9.07;;;;;;;28.32;47.73;98984.94;5085561;28;20102;-70
2022/07/22 21:13:20;;;;;;;11.85;9.68;;;;;;;28.30;47.71;98983.47;5085894;28;20060;-70
2022/07/22 21:15:48;;;;;;;10.60;9.68;;;;;;;27.85;47.90;98908.78;5068474;28;20108;-70
2022/07/22 21:18:15;;;;;;;10.68;9.43;;;;;;;28.12;46.95;98962.25;5085594;28;20300;-70
2022/07/22 21:20:43;;;;;;;11.95;8.90;;;;;;;27.48;47.17;98864.66;5085763;28;20056;-70
2022/07/22 21:23:10;;;;;;;11.90;10.45;;;;;;;28.08;47.67;98970.00;5085736;28;20430;-70
2022/07/22 21:25:37;;;;;;;12.25;10.60;;;;;;;27.87;46.75;98933.94;5085852;28;20266;-70
2022/07/22 21:28:06;;;;;;;11.52;10.35;;;;;;;28.20;45.94;98989.31;5084953;28;20267;-70
2022/07/22 21:30:33;;;;;;;13.25;9.73;;;;;;;28.18;47.19;98987.84;5085382;28;20106;-69
2022/07/22 21:33:01;;;;;;;14.60;11.55;;;;;;;28.19;46.50;98993.09;5068238;28;20100;-70
2022/07/22 21:35:29;;;;;;;13.68;10.43;;;;;;;28.20;46.31;98977.56;5085639;28;20037;-70
2022/07/22 21:37:56;;;;;;;11.23;10.02;;;;;;;28.17;47.06;98980.72;5085342;28;20056;-70
2022/07/22 21:40:24;;;;;;;10.85;9.75;;;;;;;28.16;47.13;98979.88;5085221;28;20220;-69
2022/07/22 21:42:51;;;;;;;15.60;11.13;;;;;;;28.16;47.34;98979.88;5085168;28;20094;-69
2022/07/22 21:45:21;;;;;;;14.00;12.45;;;;;;;28.15;45.88;98986.38;5084818;28;20110;-70
2022/07/22 21:47:48;;;;;;;19.42;12.13;;;;;;;28.15;47.14;98988.25;5085190;28;20086;-70
2022/07/22 21:50:15;;;;;;;14.00;10.38;;;;;;;28.13;47.27;98988.47;5085106;28;20036;-70
2022/07/22 21:52:42;;;;;;;12.05;10.85;;;;;;;28.13;47.17;98993.91;5085192;28;20048;-70
2022/07/22 21:55:10;;;;;;;11.63;9.00;;;;;;;28.12;46.83;98994.94;5085126;28;20060;-70
2022/07/22 21:57:37;;;;;;;9.52;8.68;;;;;;;28.11;46.81;98993.28;5085039;28;20082;-70
2022/07/22 22:00:08;;;;;;;11.05;9.27;;;;;;;27.96;46.67;98976.25;5084986;28;20052;-69
2022/07/22 22:02:37;;;;;;;12.35;11.05;;;;;;;28.09;45.84;98992.63;5084883;28;20049;-70
2022/07/22 22:05:05;;;;;;;17.67;12.38;;;;;;;27.98;47.24;98974.19;5084914;28;20056;-70
2022/07/22 22:07:32;;;;;;;10.60;9.60;;;;;;;27.91;46.72;98963.25;5084818;28;20105;-70
2022/07/22 22:09:59;;;;;;;9.55;8.55;;;;;;;27.98;47.29;98980.47;5085254;28;20090;-70
2022/07/22 22:12:27;;;;;;;10.27;9.27;;;;;;;27.98;46.54;98987.78;5085054;28;20060;-70
2022/07/22 22:14:56;;;;;;;11.07;9.18;;;;;;;27.94;46.58;98990.09;5085023;28;20037;-70
2022/07/22 22:17:24;;;;;;;8.98;7.80;;;;;;;27.93;47.10;98985.69;5084424;28;20116;-70
2022/07/22 22:19:53;;;;;;;8.30;7.28;;;;;;;27.92;46.54;98975.84;5067295;28;20055;-70
2022/07/22 22:22:21;;;;;;;10.88;8.23;;;;;;;27.91;46.12;98978.75;5084432;28;20056;-71
2022/07/22 22:24:48;;;;;;;10.75;9.23;;;;;;;27.90;46.28;98982.53;5084870;28;20355;-70
2022/07/22 22:27:15;;;;;;;11.73;10.40;;;;;;;27.89;46.48;98984.41;5084812;28;20247;-70
2022/07/22 22:29:42;;;;;;;10.63;9.43;;;;;;;27.85;45.44;98990.47;5084638;28;20056;-71
2022/07/22 22:32:09;;;;;;;9.55;8.50;;;;;;;27.83;46.01;98981.63;5084916;28;20223;-70
2022/07/22 22:34:38;;;;;;;9.73;8.73;;;;;;;27.81;46.11;98977.22;5084698;28;20120;-70
2022/07/22 22:37:07;;;;;;;8.70;7.82;;;;;;;27.82;46.25;98978.06;5084789;28;20232;-70
2022/07/22 22:39:34;;;;;;;9.18;8.32;;;;;;;27.18;46.42;98889.41;5085721;28;20053;-70
2022/07/22 22:42:01;;;;;;;8.05;7.28;;;;;;;27.77;46.15;98984.13;5088730;28;20105;-70
2022/07/22 22:44:28;;;;;;;11.77;10.57;;;;;;;27.77;46.92;98986.84;5088726;28;20251;-70
2022/07/22 22:46:56;;;;;;;16.20;14.45;;;;;;;27.74;46.08;98987.25;5088367;28;20113;-70
2022/07/22 22:49:23;;;;;;;14.63;13.00;;;;;;;27.73;46.48;98979.31;5089011;28;20293;-70
2022/07/22 22:51:50;;;;;;;13.40;12.13;;;;;;;27.59;46.46;98951.16;5088633;28;20118;-70
2022/07/22 22:54:18;;;;;;;12.30;10.05;;;;;;;27.67;45.93;98967.34;5088076;28;20113;-70
2022/07/22 22:56:46;;;;;;;11.63;8.70;;;;;;;27.72;45.95;98969.44;5088576;28;20098;-70
2022/07/22 22:59:14;;;;;;;9.85;8.40;;;;;;;27.72;46.39;98973.00;5088105;28;20324;-70
2022/07/22 23:01:41;;;;;;;9.15;8.10;;;;;;;27.70;46.64;98969.66;5088324;28;20295;-70
2022/07/22 23:04:08;;;;;;;10.00;9.00;;;;;;;27.68;45.49;98977.19;5088421;28;20312;-70
2022/07/22 23:06:35;;;;;;;17.15;13.93;;;;;;;27.65;45.91;98974.88;5088337;28;20056;-69